Share

Gillette, WY (82716)

Gillette-Campbell County (KGCC) Elev 4364 ft | 44.34 °N, 105.54 °W | Change Station

Current weather conditions updated 9 minutes ago

Clear
Clear
52 °F
Feels Like 52 °F
N
13
Wind Variable Wind from NE
Sunrise 6:13 AM
Sunset 7:51 PM
Moon Waning Gibbous

Tomorrow is forecast to be Much Cooler than today.

Pressure 29.71 in
Visibility 10.0 miles
Clouds Clear
Dew Point 39 °F
Humidity 61%
Rainfall 0.00 in
Snow Depth Not available.
UV 0 out of 16
Pollen 10.30 out of 12
Air Quality Not available.
Flu Activity Sporadic
METAR KGCC 190153Z AUTO 05011KT 10SM CLR 11/04 A2975 RMK AO2 SLP061 T01110039

More Conditions Fewer Conditions

Pressure 29.71 in
Visibility 10.0 miles
Clouds Clear
Dew Point 39 °F
Humidity 61%
Rainfall 0.00 in
Snow Depth Not available.
UV 0 out of 16
Pollen 10.30 out of 12
Air Quality Not available.
Flu Activity Sporadic
METAR KGCC 190153Z AUTO 05011KT 10SM CLR 11/04 A2975 RMK AO2 SLP061 T01110039

More Conditions Fewer Conditions

10-Day Weather Forecast

Almanac

Astronomy

Apr. 18, 2014 Rise Set
Actual Time 6:13 AM MDT 7:51 PM MDT
Civil Twilight 5:42 AM MDT 8:22 PM MDT
Nautical Twilight 5:05 AM MDT 8:59 PM MDT
Astronomical Twilight 4:25 AM MDT 9:39 PM MDT
Moon 11:44 PM MDT (4/18) 8:32 AM MDT (4/18)
Length of Visible Light 14h 39m
Length of Day
13h 37m
Tomorrow will be 2m 55s longer.
Waning Gibbous, 84% of the Moon is Illuminated
Today
Waning Gibbous
Apr 22
Last Quarter
Apr 29
New
May 6
First Quarter
May 14
Full

Today's Extremes

State Highs State Lows

Community

  • Cloudy spring view
    Cloudy spring view
  • Old barn
    Old barn
  • What's for Lunch?
    What's for Lunch?
  • SUNRISE THROUGH THE TREES.
    SUNRISE THROUGH THE TREES.
  • Dog Wood Blossoms
    Dog Wood Blossoms

WunderPhotos

Upload Photos

1,702,576 photos uploaded!

WunderBlogs® & News

Nearby

Snow Depth

Station Depth Elevation
Cole Canyon 23 in 5910 ft
Hansen Sawmill 31 in 8360 ft
Cloud Peak Reservoir 68 in 9860 ft
Big Goose 46 in 7990 ft
Powder River Pass 49 in 9480 ft

Coastal Water Temperatures

Place Temperature
No Stations Reporting

Earthquake Activity

City Distance Mag. Time & Date
No recent earthquake activity has been reported nearby.
Minimum magnitude displayed is 2.5.

Nearby Weather Stations

Station Location Temp. Dew Point Humidity Wind Precip. Elev Updated Type
RAWS ECHETA WY, Gillette, WY 60 °F 39 °F 46% North  at  5 mph 0.00 in / hr 4396 ft 6:51 PM MDT MADIS
(North Gillette), Gillette, WY 54.6 °F 41 °F 59% NNE  at  0.0 mph 0.00 in / hr 4610 ft 8:02 PM MDT Rapid Fire

Show More Stations Show Fewer Stations

What do you think?

We're not finished. Please let us know what you like, what you don't like, and what you are still missing.